createdAt,value
2023-03-17T00:01:20.884Z,6.72
2023-03-17T00:03:50.468Z,6.77
2023-03-17T00:06:24.558Z,6.57
2023-03-17T00:08:52.324Z,6.79
2023-03-17T00:11:20.030Z,6.84
2023-03-17T00:13:48.859Z,6.72
2023-03-17T00:16:22.029Z,6.71
2023-03-17T00:18:51.247Z,6.68
2023-03-17T00:21:23.845Z,6.62
2023-03-17T00:23:52.909Z,6.49
2023-03-17T00:26:20.697Z,6.61
2023-03-17T00:28:49.036Z,6.54
2023-03-17T00:31:20.926Z,6.42
2023-03-17T00:33:52.132Z,6.77
2023-03-17T00:36:22.567Z,6.83
2023-03-17T00:38:50.365Z,6.66
2023-03-17T00:41:18.398Z,6.94
2023-03-17T00:43:46.509Z,6.71
2023-03-17T00:46:16.590Z,6.87
2023-03-17T00:48:46.634Z,6.83
2023-03-17T00:51:16.627Z,6.81
2023-03-17T00:53:45.738Z,6.95
2023-03-17T00:56:16.206Z,6.83
2023-03-17T00:58:44.457Z,6.79
2023-03-17T01:01:12.647Z,6.97
2023-03-17T01:03:41.429Z,6.74
2023-03-17T01:06:12.663Z,6.66
2023-03-17T01:08:42.563Z,6.82
2023-03-17T01:11:16.534Z,6.87
2023-03-17T01:13:44.758Z,6.83
2023-03-17T01:16:12.752Z,6.69
2023-03-17T01:18:40.722Z,6.70
2023-03-17T01:21:08.793Z,6.53
2023-03-17T01:23:37.384Z,6.57
2023-03-17T01:26:07.710Z,6.57
2023-03-17T01:28:35.566Z,6.51
2023-03-17T01:31:03.854Z,6.49
2023-03-17T01:33:31.694Z,6.49
2023-03-17T01:35:59.404Z,6.65
2023-03-17T01:38:27.156Z,6.66
2023-03-17T01:40:55.181Z,6.71
2023-03-17T01:43:27.810Z,6.39
2023-03-17T01:46:20.649Z,6.67
2023-03-17T01:48:53.916Z,6.53
2023-03-17T01:51:29.434Z,6.34
2023-03-17T01:53:58.548Z,6.08
2023-03-17T01:56:27.011Z,6.31
2023-03-17T01:58:57.837Z,6.33
2023-03-17T02:01:32.333Z,6.37
2023-03-17T02:04:00.882Z,6.19
2023-03-17T02:06:29.746Z,6.42
2023-03-17T02:08:57.700Z,6.44
2023-03-17T02:11:26.322Z,6.14
2023-03-17T02:13:54.480Z,5.88
2023-03-17T02:16:23.993Z,5.74
2023-03-17T02:18:51.682Z,5.76
2023-03-17T02:21:48.756Z,5.72
2023-03-17T02:24:23.525Z,5.90
2023-03-17T02:26:52.877Z,5.72
2023-03-17T02:29:21.938Z,5.82
2023-03-17T02:31:49.870Z,5.93
2023-03-17T02:34:18.046Z,5.75
2023-03-17T02:36:46.208Z,5.86
2023-03-17T02:39:15.460Z,5.87
2023-03-17T02:41:43.124Z,5.59
2023-03-17T02:44:11.409Z,5.67
2023-03-17T02:46:39.174Z,5.72
2023-03-17T02:49:07.401Z,6.09
2023-03-17T02:52:01.590Z,5.94
2023-03-17T02:54:30.740Z,5.74
2023-03-17T02:56:58.384Z,5.78
2023-03-17T02:59:26.356Z,5.88
2023-03-17T03:01:56.058Z,5.89
2023-03-17T03:04:26.320Z,5.53
2023-03-17T03:06:54.688Z,5.33
2023-03-17T03:09:22.574Z,5.33
2023-03-17T03:11:52.205Z,5.21
2023-03-17T03:14:19.921Z,4.97
2023-03-17T03:16:47.624Z,4.88
2023-03-17T03:19:15.484Z,4.72
2023-03-17T03:21:43.280Z,4.86
2023-03-17T03:24:11.084Z,4.87
2023-03-17T03:26:38.815Z,4.77
2023-03-17T03:29:07.908Z,4.68
2023-03-17T03:31:36.034Z,4.53
2023-03-17T03:34:04.155Z,4.41
2023-03-17T03:36:32.310Z,4.52
2023-03-17T03:39:00.924Z,4.37
2023-03-17T03:41:28.678Z,4.38
2023-03-17T03:43:56.921Z,4.26
2023-03-17T03:46:26.718Z,4.37
2023-03-17T03:48:54.881Z,4.61
2023-03-17T03:51:22.844Z,4.48
2023-03-17T03:53:50.674Z,4.26
2023-03-17T03:56:18.571Z,3.97
2023-03-17T03:58:46.428Z,4.02
2023-03-17T04:01:14.452Z,4.00
2023-03-17T04:03:43.620Z,3.88
2023-03-17T04:06:11.946Z,3.73
2023-03-17T04:08:39.874Z,3.71
2023-03-17T04:11:08.652Z,3.74
2023-03-17T04:13:36.496Z,3.65
2023-03-17T04:16:04.221Z,3.49
2023-03-17T04:18:32.156Z,3.55
2023-03-17T04:21:01.517Z,3.38
2023-03-17T04:23:31.415Z,3.25
2023-03-17T04:25:59.541Z,3.25
2023-03-17T04:28:27.334Z,3.17
2023-03-17T04:30:55.047Z,3.12
2023-03-17T04:33:22.811Z,2.97
2023-03-17T04:35:50.469Z,3.01
2023-03-17T04:38:19.498Z,3.01
2023-03-17T04:40:47.396Z,2.95
2023-03-17T04:43:15.516Z,2.88
2023-03-17T04:45:43.324Z,2.88
2023-03-17T04:48:11.078Z,2.67
2023-03-17T04:50:39.078Z,2.50
2023-03-17T04:53:06.815Z,2.47
2023-03-17T04:55:36.361Z,2.30
2023-03-17T04:58:04.087Z,2.38
2023-03-17T05:00:33.732Z,2.47
2023-03-17T05:03:01.390Z,2.45
2023-03-17T05:05:29.077Z,2.33
2023-03-17T05:07:56.811Z,2.29
2023-03-17T05:10:24.556Z,2.16
2023-03-17T05:12:53.698Z,2.06
2023-03-17T05:15:21.702Z,2.07
2023-03-17T05:17:49.457Z,1.90
2023-03-17T05:20:18.265Z,1.84
2023-03-17T05:22:46.504Z,1.80
2023-03-17T05:25:14.269Z,1.81
2023-03-17T05:27:42.265Z,1.80
2023-03-17T05:30:13.390Z,1.94
2023-03-17T05:32:41.981Z,1.87
2023-03-17T05:35:10.858Z,1.81
2023-03-17T05:37:38.741Z,1.80
2023-03-17T05:40:07.030Z,1.67
2023-03-17T05:42:34.821Z,1.69
2023-03-17T05:45:02.746Z,1.69
2023-03-17T05:47:32.129Z,1.57
2023-03-17T05:49:59.846Z,1.60
2023-03-17T05:52:28.111Z,1.62
2023-03-17T05:54:56.765Z,1.55
2023-03-17T05:57:25.010Z,1.55
2023-03-17T05:59:52.641Z,1.53
2023-03-17T06:02:21.015Z,1.59
2023-03-17T06:04:50.064Z,1.54
2023-03-17T06:07:17.744Z,1.47
2023-03-17T06:09:45.485Z,1.71
2023-03-17T06:12:13.159Z,1.59
2023-03-17T06:14:41.041Z,1.68
2023-03-17T06:17:09.034Z,1.61
2023-03-17T06:19:36.778Z,1.67
2023-03-17T06:22:05.848Z,1.75
2023-03-17T06:24:33.675Z,1.95
2023-03-17T06:27:01.592Z,2.15
2023-03-17T06:29:30.737Z,2.16
2023-03-17T06:32:09.240Z,2.25
2023-03-17T06:34:45.123Z,2.25
2023-03-17T06:37:14.697Z,2.27
2023-03-17T06:39:42.940Z,2.45
2023-03-17T06:42:11.008Z,2.52
2023-03-17T06:44:38.847Z,2.64
2023-03-17T06:47:07.414Z,2.49
2023-03-17T06:49:35.390Z,2.60
2023-03-17T06:52:03.034Z,2.94
2023-03-17T06:54:32.682Z,3.32
2023-03-17T06:57:00.758Z,3.40
2023-03-17T06:59:30.912Z,3.48
2023-03-17T07:01:58.965Z,3.70
2023-03-17T07:04:27.284Z,3.92
2023-03-17T07:06:55.041Z,4.17
2023-03-17T07:09:23.183Z,4.50
2023-03-17T07:11:52.303Z,4.63
2023-03-17T07:14:20.413Z,4.74
2023-03-17T07:16:48.508Z,4.97
2023-03-17T07:19:16.235Z,4.95
2023-03-17T07:21:46.013Z,4.95
2023-03-17T07:24:14.666Z,4.89
2023-03-17T07:26:42.619Z,4.88
2023-03-17T07:29:11.669Z,5.04
2023-03-17T07:31:39.678Z,5.01
2023-03-17T07:34:07.834Z,5.16
2023-03-17T07:36:35.938Z,5.21
2023-03-17T07:39:03.638Z,5.57
2023-03-17T07:41:31.565Z,5.75
2023-03-17T07:43:59.278Z,5.92
2023-03-17T07:46:28.877Z,6.05
2023-03-17T07:48:56.859Z,6.27
2023-03-17T07:51:27.644Z,6.54
2023-03-17T07:54:03.286Z,6.94
2023-03-17T07:56:31.963Z,7.78
2023-03-17T07:59:00.452Z,8.45
2023-03-17T08:01:30.566Z,9.32
2023-03-17T08:03:58.659Z,10.12
2023-03-17T08:06:26.659Z,10.19
2023-03-17T08:08:55.012Z,11.33
2023-03-17T08:11:23.347Z,11.71
2023-03-17T08:13:51.297Z,11.54
2023-03-17T08:16:19.061Z,11.48
2023-03-17T08:18:48.360Z,11.54
2023-03-17T08:21:16.683Z,11.97
2023-03-17T08:23:44.626Z,12.56
2023-03-17T08:26:14.276Z,12.98
2023-03-17T08:28:43.015Z,13.33
2023-03-17T08:31:13.653Z,12.66
2023-03-17T08:33:42.650Z,13.73
2023-03-17T08:36:13.085Z,13.69
2023-03-17T08:38:42.678Z,12.82
2023-03-17T08:41:13.178Z,13.05
2023-03-17T08:43:42.201Z,13.24
2023-03-17T08:46:16.984Z,12.83
2023-03-17T08:48:46.753Z,12.90
2023-03-17T08:51:18.710Z,13.21
2023-03-17T08:53:47.831Z,13.80
2023-03-17T08:56:16.866Z,13.85
2023-03-17T08:58:45.955Z,13.52
2023-03-17T09:01:15.279Z,12.74
2023-03-17T09:03:43.743Z,13.05
2023-03-17T09:06:13.532Z,12.75
2023-03-17T09:08:44.982Z,12.81
2023-03-17T09:11:16.453Z,12.23
2023-03-17T09:13:44.431Z,12.38
2023-03-17T09:16:12.342Z,12.34
2023-03-17T09:18:40.803Z,12.37
2023-03-17T09:21:09.865Z,12.04
2023-03-17T09:23:37.545Z,12.21
2023-03-17T09:26:07.351Z,12.65
2023-03-17T09:28:35.320Z,13.27
2023-03-17T09:31:05.520Z,13.81
2023-03-17T09:33:33.339Z,14.11
2023-03-17T09:36:01.547Z,14.00
2023-03-17T09:38:29.841Z,13.73
2023-03-17T09:41:05.191Z,13.56
2023-03-17T09:43:43.008Z,13.64
2023-03-17T09:46:37.584Z,13.68
2023-03-17T09:49:08.979Z,13.58
2023-03-17T09:51:36.921Z,13.78
2023-03-17T09:54:08.605Z,13.83
2023-03-17T09:56:41.956Z,13.75
2023-03-17T09:59:29.565Z,14.01
2023-03-17T10:01:57.813Z,14.07
2023-03-17T10:04:26.272Z,13.72
2023-03-17T10:07:01.618Z,13.49
2023-03-17T10:09:37.055Z,13.65
2023-03-17T10:12:10.810Z,14.16
2023-03-17T10:14:51.129Z,14.21
2023-03-17T10:17:21.225Z,14.06
2023-03-17T10:19:57.195Z,13.73
2023-03-17T10:22:31.439Z,13.56
2023-03-17T10:25:03.950Z,13.06
2023-03-17T10:27:35.382Z,13.49
2023-03-17T10:30:04.875Z,14.11
2023-03-17T10:32:38.664Z,13.78
2023-03-17T10:35:08.122Z,13.81
2023-03-17T10:37:36.612Z,13.90
2023-03-17T10:40:10.260Z,14.00
2023-03-17T10:42:47.966Z,14.08
2023-03-17T10:45:24.941Z,14.61
2023-03-17T10:47:53.482Z,14.74
2023-03-17T10:50:24.669Z,14.95
2023-03-17T10:52:55.837Z,14.82
2023-03-17T10:55:28.025Z,14.77
2023-03-17T10:58:03.697Z,14.48
2023-03-17T11:00:36.487Z,14.19
2023-03-17T11:03:12.173Z,14.14
2023-03-17T11:05:41.288Z,14.60
2023-03-17T11:08:12.973Z,14.56
2023-03-17T11:10:42.636Z,14.45
2023-03-17T11:13:10.498Z,14.58
2023-03-17T11:15:45.903Z,14.71
2023-03-17T11:18:20.601Z,13.97
2023-03-17T11:20:54.743Z,14.31
2023-03-17T11:23:47.245Z,14.03
2023-03-17T11:26:31.661Z,14.01
2023-03-17T11:29:19.724Z,13.73
2023-03-17T11:31:57.318Z,13.88
2023-03-17T11:34:37.192Z,13.84
2023-03-17T11:37:12.099Z,13.84
2023-03-17T11:39:50.919Z,13.49
2023-03-17T11:42:24.679Z,13.81
2023-03-17T11:45:18.105Z,13.69
2023-03-17T11:48:07.673Z,13.61
2023-03-17T11:50:41.579Z,13.76
2023-03-17T11:53:25.124Z,13.97
2023-03-17T11:55:58.008Z,13.81
2023-03-17T11:58:33.712Z,13.64
2023-03-17T12:01:03.959Z,13.67
2023-03-17T12:03:42.425Z,13.80
2023-03-17T12:06:17.953Z,13.94
2023-03-17T12:08:52.592Z,13.80
2023-03-17T12:11:25.797Z,13.74
2023-03-17T12:13:59.470Z,13.98
2023-03-17T12:16:33.203Z,13.71
2023-03-17T12:19:11.434Z,13.65
2023-03-17T12:21:46.572Z,14.04
2023-03-17T12:24:20.186Z,14.33
2023-03-17T12:26:55.537Z,14.25
2023-03-17T12:29:29.553Z,14.10
2023-03-17T12:32:05.705Z,14.47
2023-03-17T12:34:44.675Z,14.30
2023-03-17T12:37:12.806Z,14.59
2023-03-17T12:39:46.744Z,14.55
2023-03-17T12:42:30.757Z,14.37
2023-03-17T12:45:26.364Z,14.07
2023-03-17T12:48:16.598Z,14.49
2023-03-17T12:51:06.872Z,14.40
2023-03-17T12:53:37.636Z,14.51
2023-03-17T12:56:13.125Z,14.44
2023-03-17T12:58:44.793Z,14.45
2023-03-17T13:01:24.065Z,14.25
2023-03-17T13:04:03.509Z,14.11
2023-03-17T13:06:40.734Z,14.03
2023-03-17T13:09:31.465Z,14.19
2023-03-17T13:12:00.426Z,14.30
2023-03-17T13:14:41.727Z,14.48
2023-03-17T13:17:34.852Z,14.64
2023-03-17T13:20:18.375Z,14.72
2023-03-17T13:23:13.736Z,14.65
2023-03-17T13:25:53.295Z,14.85
2023-03-17T13:28:27.372Z,14.79
2023-03-17T13:31:11.582Z,14.92
2023-03-17T13:33:45.934Z,14.79
2023-03-17T13:36:26.531Z,15.02
2023-03-17T13:39:25.151Z,15.24
2023-03-17T13:42:23.009Z,15.35
2023-03-17T13:45:14.383Z,14.98
2023-03-17T13:47:43.403Z,15.21
2023-03-17T13:50:16.266Z,14.88
2023-03-17T13:52:49.351Z,14.89
2023-03-17T13:55:40.998Z,14.78
2023-03-17T13:58:34.438Z,14.54
2023-03-17T14:01:07.407Z,14.51
2023-03-17T14:03:42.289Z,14.45
2023-03-17T14:06:13.442Z,14.43
2023-03-17T14:08:46.621Z,14.45
2023-03-17T14:11:27.881Z,14.22
2023-03-17T14:14:10.733Z,14.43
2023-03-17T14:16:46.364Z,14.11
2023-03-17T14:19:21.556Z,14.32
2023-03-17T14:21:49.894Z,14.48
2023-03-17T14:24:23.835Z,14.54
2023-03-17T14:26:53.680Z,14.54
2023-03-17T14:29:33.527Z,14.68
2023-03-17T14:32:05.486Z,14.54
2023-03-17T14:34:34.076Z,14.52
2023-03-17T14:37:04.309Z,14.72
2023-03-17T14:39:32.198Z,14.82
2023-03-17T14:42:07.120Z,14.49
2023-03-17T14:44:39.642Z,14.64
2023-03-17T14:47:15.568Z,14.50
2023-03-17T14:49:43.611Z,14.53
2023-03-17T14:52:37.193Z,14.41
2023-03-17T14:55:08.408Z,14.48
2023-03-17T14:57:38.818Z,14.47
2023-03-17T15:00:31.801Z,14.44
2023-03-17T15:03:02.438Z,14.37
2023-03-17T15:05:39.284Z,14.10
2023-03-17T15:08:42.619Z,14.24
2023-03-17T15:11:18.544Z,14.35
2023-03-17T15:13:48.394Z,14.35
2023-03-17T15:16:21.471Z,14.33
2023-03-17T15:18:54.990Z,14.33
2023-03-17T15:21:33.265Z,14.46
2023-03-17T15:24:05.916Z,14.51
2023-03-17T15:26:33.705Z,14.60
2023-03-17T15:29:02.815Z,14.62
2023-03-17T15:31:30.794Z,14.80
2023-03-17T15:33:59.399Z,14.62
2023-03-17T15:36:32.838Z,14.55
2023-03-17T15:39:01.300Z,14.54
2023-03-17T15:41:29.043Z,14.63
2023-03-17T15:43:56.821Z,14.73
2023-03-17T15:46:30.855Z,14.52
2023-03-17T15:48:59.497Z,14.54
2023-03-17T15:51:27.801Z,14.57
2023-03-17T15:53:56.014Z,14.56
2023-03-17T15:56:23.647Z,14.71
2023-03-17T15:58:52.760Z,14.74
2023-03-17T16:01:21.765Z,14.87
2023-03-17T16:03:51.210Z,14.74
2023-03-17T16:06:21.408Z,14.75
2023-03-17T16:08:50.190Z,14.83
2023-03-17T16:11:20.086Z,14.84
2023-03-17T16:13:48.793Z,14.84
2023-03-17T16:16:21.711Z,14.74
2023-03-17T16:18:52.489Z,14.71
2023-03-17T16:21:20.832Z,14.75
2023-03-17T16:23:49.980Z,14.71
2023-03-17T16:26:18.063Z,14.76
2023-03-17T16:28:47.664Z,14.68
2023-03-17T16:31:22.338Z,14.62
2023-03-17T16:33:52.628Z,14.53
2023-03-17T16:36:22.140Z,14.53
2023-03-17T16:38:52.323Z,14.46
2023-03-17T16:41:23.068Z,14.32
2023-03-17T16:43:53.616Z,14.38
2023-03-17T16:46:22.644Z,14.33
2023-03-17T16:48:52.449Z,14.14
2023-03-17T16:51:21.132Z,14.03
2023-03-17T16:53:48.874Z,13.99
2023-03-17T16:56:20.227Z,13.97
2023-03-17T16:58:48.522Z,13.89
2023-03-17T17:01:19.210Z,13.65
2023-03-17T17:03:48.573Z,13.61
2023-03-17T17:06:19.692Z,13.52
2023-03-17T17:08:48.169Z,13.44
2023-03-17T17:11:17.203Z,13.37
2023-03-17T17:13:46.888Z,13.22
2023-03-17T17:16:22.479Z,13.09
2023-03-17T17:18:50.732Z,13.03
2023-03-17T17:21:20.045Z,12.93
2023-03-17T17:23:48.059Z,12.82
2023-03-17T17:26:16.135Z,12.76
2023-03-17T17:28:44.004Z,12.70
2023-03-17T17:31:12.021Z,12.56
2023-03-17T17:33:40.623Z,12.53
2023-03-17T17:36:14.589Z,12.45
2023-03-17T17:38:43.998Z,12.50
2023-03-17T17:41:13.527Z,12.54
2023-03-17T17:43:41.688Z,12.55
2023-03-17T17:46:12.738Z,12.52
2023-03-17T17:48:41.353Z,12.44
2023-03-17T17:51:09.065Z,12.37
2023-03-17T17:53:37.128Z,12.36
2023-03-17T17:56:06.663Z,12.33
2023-03-17T17:58:34.656Z,12.15
2023-03-17T18:01:04.703Z,12.06
2023-03-17T18:03:33.484Z,12.10
2023-03-17T18:06:01.565Z,12.08
2023-03-17T18:08:29.606Z,12.12
2023-03-17T18:10:57.370Z,12.07
2023-03-17T18:13:29.391Z,12.01
2023-03-17T18:15:57.119Z,12.04
2023-03-17T18:18:24.957Z,11.96
2023-03-17T18:20:54.019Z,11.91
2023-03-17T18:23:23.204Z,11.91
2023-03-17T18:25:51.028Z,11.85
2023-03-17T18:28:19.002Z,11.84
2023-03-17T18:30:50.873Z,11.85
2023-03-17T18:33:20.926Z,11.81
2023-03-17T18:35:52.356Z,11.90
2023-03-17T18:38:20.214Z,11.76
2023-03-17T18:40:51.375Z,11.70
2023-03-17T18:43:19.219Z,11.69
2023-03-17T18:45:49.380Z,11.67
2023-03-17T18:48:17.250Z,11.64
2023-03-17T18:50:45.171Z,11.60
2023-03-17T18:53:13.653Z,11.60
2023-03-17T18:55:42.511Z,11.49
2023-03-17T18:58:10.240Z,11.55
2023-03-17T19:00:40.237Z,11.58
2023-03-17T19:03:09.409Z,11.56
2023-03-17T19:05:39.499Z,11.53
2023-03-17T19:08:07.893Z,11.49
2023-03-17T19:10:35.568Z,11.44
2023-03-17T19:13:04.736Z,11.42
2023-03-17T19:15:34.213Z,11.41
2023-03-17T19:18:02.691Z,11.30
2023-03-17T19:20:33.830Z,11.28
2023-03-17T19:23:02.128Z,11.13
2023-03-17T19:25:29.907Z,11.06
2023-03-17T19:27:59.130Z,11.05
2023-03-17T19:30:27.144Z,11.10
2023-03-17T19:32:55.073Z,11.19
2023-03-17T19:35:23.223Z,11.25
2023-03-17T19:37:52.705Z,11.18
2023-03-17T19:40:20.919Z,11.03
2023-03-17T19:42:49.044Z,11.04
2023-03-17T19:45:17.587Z,11.00
2023-03-17T19:47:45.553Z,10.98
2023-03-17T19:50:13.524Z,11.07
2023-03-17T19:52:41.356Z,11.06
2023-03-17T19:55:11.277Z,11.06
2023-03-17T19:57:39.259Z,11.10
2023-03-17T20:00:09.174Z,11.11
2023-03-17T20:02:37.093Z,10.97
2023-03-17T20:05:05.519Z,11.08
2023-03-17T20:07:33.742Z,11.04
2023-03-17T20:10:02.124Z,11.00
2023-03-17T20:12:32.614Z,10.88
2023-03-17T20:15:01.460Z,10.91
2023-03-17T20:17:29.582Z,10.94
2023-03-17T20:19:57.470Z,10.91
2023-03-17T20:22:25.418Z,10.81
2023-03-17T20:24:53.215Z,10.68
2023-03-17T20:27:21.496Z,10.72
2023-03-17T20:29:51.410Z,10.76
2023-03-17T20:32:19.475Z,10.82
2023-03-17T20:34:48.847Z,10.78
2023-03-17T20:37:16.771Z,10.82
2023-03-17T20:39:44.855Z,10.78
2023-03-17T20:42:14.877Z,10.72
2023-03-17T20:44:43.202Z,10.59
2023-03-17T20:47:14.082Z,10.47
2023-03-17T20:49:42.868Z,10.41
2023-03-17T20:52:13.011Z,10.36
2023-03-17T20:54:41.224Z,10.50
2023-03-17T20:57:11.666Z,10.49
2023-03-17T20:59:40.069Z,10.48
2023-03-17T21:02:12.311Z,10.34
2023-03-17T21:04:46.606Z,10.28
2023-03-17T21:07:14.767Z,10.35
2023-03-17T21:09:42.569Z,10.41
2023-03-17T21:12:13.718Z,10.32
2023-03-17T21:14:42.484Z,10.41
2023-03-17T21:17:10.872Z,10.50
2023-03-17T21:19:39.298Z,10.51
2023-03-17T21:22:08.949Z,10.58
2023-03-17T21:24:38.296Z,10.70
2023-03-17T21:27:08.252Z,10.80
2023-03-17T21:29:36.362Z,10.87
2023-03-17T21:32:07.050Z,10.82
2023-03-17T21:34:35.048Z,10.92
2023-03-17T21:37:02.911Z,11.01
2023-03-17T21:39:32.641Z,11.08
2023-03-17T21:42:01.319Z,11.12
2023-03-17T21:44:29.386Z,11.00
2023-03-17T21:46:57.384Z,10.98
2023-03-17T21:49:25.576Z,10.84
2023-03-17T21:51:54.449Z,10.78
2023-03-17T21:54:22.391Z,10.77
2023-03-17T21:56:51.526Z,10.77
2023-03-17T21:59:20.968Z,10.74
2023-03-17T22:01:51.942Z,10.50
2023-03-17T22:04:19.828Z,10.30
2023-03-17T22:06:47.552Z,10.27
2023-03-17T22:09:18.147Z,10.24
2023-03-17T22:11:46.833Z,10.22
2023-03-17T22:14:19.902Z,10.22
2023-03-17T22:16:48.332Z,10.20
2023-03-17T22:19:18.186Z,10.44
2023-03-17T22:21:47.033Z,10.48
2023-03-17T22:24:14.773Z,10.47
2023-03-17T22:26:42.626Z,10.44
2023-03-17T22:29:10.279Z,10.54
2023-03-17T22:31:39.389Z,10.51
2023-03-17T22:34:09.820Z,10.45
2023-03-17T22:36:38.117Z,10.50
2023-03-17T22:39:08.974Z,10.47
2023-03-17T22:41:37.058Z,10.45
2023-03-17T22:44:05.055Z,10.43
2023-03-17T22:46:32.714Z,10.42
2023-03-17T22:49:01.904Z,10.39
2023-03-17T22:51:29.656Z,10.23
2023-03-17T22:53:57.731Z,10.29
2023-03-17T22:56:26.524Z,10.38
2023-03-17T22:58:55.383Z,10.52
2023-03-17T23:01:25.717Z,10.60
2023-03-17T23:03:54.410Z,10.82
2023-03-17T23:06:24.508Z,11.09
2023-03-17T23:08:52.742Z,11.15
2023-03-17T23:11:23.304Z,11.21
2023-03-17T23:13:52.624Z,11.32
2023-03-17T23:16:21.942Z,11.31
2023-03-17T23:18:49.907Z,11.31
2023-03-17T23:21:24.287Z,11.25
2023-03-17T23:23:51.988Z,11.24
2023-03-17T23:26:19.770Z,11.27
2023-03-17T23:28:47.554Z,11.08
2023-03-17T23:31:16.824Z,10.74
2023-03-17T23:33:44.703Z,10.88
2023-03-17T23:36:14.019Z,10.91
2023-03-17T23:38:43.968Z,10.83
2023-03-17T23:41:13.412Z,10.75
2023-03-17T23:43:41.968Z,10.67
2023-03-17T23:46:09.651Z,10.68
2023-03-17T23:48:37.631Z,10.74
2023-03-17T23:51:05.712Z,10.90
2023-03-17T23:53:33.904Z,10.85
2023-03-17T23:56:03.128Z,10.63
2023-03-17T23:58:31.483Z,10.67
